createdAt,value
2022-10-28T00:01:12.242Z,100077.73
2022-10-28T00:03:51.021Z,100074.75
2022-10-28T00:06:21.650Z,100073.45
2022-10-28T00:08:49.729Z,100070.91
2022-10-28T00:11:26.390Z,100065.58
2022-10-28T00:13:55.989Z,100059.45
2022-10-28T00:16:25.815Z,100055.75
2022-10-28T00:18:54.467Z,100051.55
2022-10-28T00:21:26.059Z,100049.10
2022-10-28T00:23:53.869Z,100051.50
2022-10-28T00:26:24.057Z,100049.42
2022-10-28T00:28:57.045Z,100046.39
2022-10-28T00:31:26.573Z,100048.60
2022-10-28T00:33:54.575Z,100045.85
2022-10-28T00:36:24.705Z,100043.05
2022-10-28T00:38:53.847Z,100043.04
2022-10-28T00:41:27.140Z,100037.06
2022-10-28T00:44:00.561Z,100039.33
2022-10-28T00:46:39.694Z,100038.81
2022-10-28T00:49:17.324Z,100034.55
2022-10-28T00:51:46.989Z,100037.86
2022-10-28T00:54:16.506Z,100045.36
2022-10-28T00:56:46.264Z,100042.14
2022-10-28T00:59:20.043Z,100039.52
2022-10-28T01:01:47.800Z,100039.05
2022-10-28T01:04:16.521Z,100040.59
2022-10-28T01:06:44.666Z,100039.34
2022-10-28T01:09:12.339Z,100030.72
2022-10-28T01:11:42.830Z,100026.61
2022-10-28T01:14:21.964Z,100021.15
2022-10-28T01:17:03.181Z,100021.29
2022-10-28T01:19:52.922Z,100023.54
2022-10-28T01:22:29.010Z,100018.66
2022-10-28T01:25:24.764Z,100012.02
2022-10-28T01:28:30.428Z,100008.02
2022-10-28T01:31:09.935Z,100006.66
2022-10-28T01:33:50.893Z,99999.20
2022-10-28T01:36:27.981Z,100000.98
2022-10-28T01:39:12.487Z,100000.47
2022-10-28T01:41:51.046Z,100003.21
2022-10-28T01:44:25.048Z,100004.17
2022-10-28T01:47:08.695Z,100007.15
2022-10-28T01:50:02.621Z,100004.22
2022-10-28T01:52:31.856Z,100000.44
2022-10-28T01:55:06.781Z,100000.67
2022-10-28T01:57:36.849Z,99996.34
2022-10-28T02:00:05.399Z,99989.08
2022-10-28T02:02:40.647Z,99988.73
2022-10-28T02:05:39.469Z,99988.60
2022-10-28T02:08:20.352Z,99992.38
2022-10-28T02:11:04.255Z,99990.91
2022-10-28T02:13:46.416Z,99987.83
2022-10-28T02:16:19.833Z,99983.70
2022-10-28T02:19:00.106Z,99981.95
2022-10-28T02:21:33.733Z,99983.31
2022-10-28T02:24:09.858Z,99979.89
2022-10-28T02:26:41.571Z,99975.45
2022-10-28T02:29:19.696Z,99977.83
2022-10-28T02:31:53.813Z,99970.03
2022-10-28T02:34:36.812Z,99969.13
2022-10-28T02:37:10.933Z,99969.48
2022-10-28T02:39:41.913Z,99964.91
2022-10-28T02:42:17.353Z,99963.36
2022-10-28T02:44:49.119Z,99963.30
2022-10-28T02:47:20.319Z,99960.08
2022-10-28T02:49:52.187Z,99954.48
2022-10-28T02:52:20.846Z,99955.44
2022-10-28T02:54:57.019Z,99957.57
2022-10-28T02:57:27.077Z,99957.08
2022-10-28T02:59:57.721Z,99954.94
2022-10-28T03:02:26.291Z,99952.02
2022-10-28T03:04:54.140Z,99950.35
2022-10-28T03:07:21.703Z,99945.41
2022-10-28T03:09:49.479Z,99944.90
2022-10-28T03:12:17.392Z,99941.00
2022-10-28T03:14:44.970Z,99936.82
2022-10-28T03:17:12.621Z,99935.20
2022-10-28T03:19:40.165Z,99937.14
2022-10-28T03:22:07.776Z,99939.51
2022-10-28T03:24:35.315Z,99942.98
2022-10-28T03:27:03.773Z,99946.25
2022-10-28T03:29:31.509Z,99944.46
2022-10-28T03:31:59.045Z,99937.60
2022-10-28T03:34:26.558Z,99938.12
2022-10-28T03:36:54.175Z,99937.91
2022-10-28T03:39:21.728Z,99933.06
2022-10-28T03:41:49.295Z,99931.88
2022-10-28T03:44:16.821Z,99935.90
2022-10-28T03:46:44.397Z,99935.90
2022-10-28T03:49:11.905Z,99930.48
2022-10-28T03:51:39.413Z,99929.77
2022-10-28T03:54:07.018Z,99931.14
2022-10-28T03:56:34.574Z,99931.59
2022-10-28T03:59:02.107Z,99928.41
2022-10-28T04:01:29.723Z,99930.30
2022-10-28T04:03:57.384Z,99926.07
2022-10-28T04:06:25.137Z,99922.61
2022-10-28T04:08:52.653Z,99922.62
2022-10-28T04:11:20.157Z,99916.64
2022-10-28T04:13:47.872Z,99917.20
2022-10-28T04:16:15.362Z,99914.44
2022-10-28T04:18:42.855Z,99909.55
2022-10-28T04:21:10.567Z,99905.91
2022-10-28T04:23:38.126Z,99904.08
2022-10-28T04:26:05.818Z,99901.88
2022-10-28T04:28:33.425Z,99902.27
2022-10-28T04:31:02.736Z,99899.60
2022-10-28T04:33:31.047Z,99894.09
2022-10-28T04:35:58.645Z,99891.25
2022-10-28T04:38:26.251Z,99887.50
2022-10-28T04:40:53.802Z,99884.31
2022-10-28T04:43:21.388Z,99886.77
2022-10-28T04:45:48.941Z,99882.92
2022-10-28T04:48:16.469Z,99885.33
2022-10-28T04:50:44.522Z,99883.84
2022-10-28T04:53:13.133Z,99885.67
2022-10-28T04:55:40.659Z,99881.84
2022-10-28T04:58:09.624Z,99876.41
2022-10-28T05:00:37.122Z,99874.02
2022-10-28T05:03:04.647Z,99870.29
2022-10-28T05:05:32.482Z,99863.16
2022-10-28T05:08:00.069Z,99868.88
2022-10-28T05:10:27.812Z,99866.72
2022-10-28T05:12:55.462Z,99867.68
2022-10-28T05:15:23.104Z,99864.48
2022-10-28T05:17:50.884Z,99865.14
2022-10-28T05:20:19.921Z,99862.47
2022-10-28T05:22:49.097Z,99864.54
2022-10-28T05:25:17.667Z,99866.05
2022-10-28T05:27:45.661Z,99866.52
2022-10-28T05:30:13.940Z,99868.20
2022-10-28T05:32:41.845Z,99865.62
2022-10-28T05:35:09.927Z,99865.54
2022-10-28T05:37:38.179Z,99863.86
2022-10-28T05:40:06.437Z,99859.84
2022-10-28T05:42:33.931Z,99863.11
2022-10-28T05:45:01.451Z,99864.34
2022-10-28T05:47:28.954Z,99858.35
2022-10-28T05:49:56.479Z,99857.79
2022-10-28T05:52:24.042Z,99860.66
2022-10-28T05:54:51.574Z,99863.30
2022-10-28T05:57:19.106Z,99859.00
2022-10-28T05:59:46.865Z,99857.55
2022-10-28T06:02:15.061Z,99861.35
2022-10-28T06:04:42.721Z,99863.95
2022-10-28T06:07:10.268Z,99865.89
2022-10-28T06:09:38.189Z,99861.21
2022-10-28T06:12:05.233Z,99857.60
2022-10-28T06:14:33.213Z,99859.58
2022-10-28T06:17:02.128Z,99860.77
2022-10-28T06:19:29.699Z,99864.41
2022-10-28T06:21:57.221Z,99866.34
2022-10-28T06:24:24.912Z,99867.25
2022-10-28T06:26:52.431Z,99871.29
2022-10-28T06:29:20.043Z,99871.59
2022-10-28T06:31:47.641Z,99874.64
2022-10-28T06:34:15.428Z,99874.23
2022-10-28T06:36:42.969Z,99871.06
2022-10-28T06:39:10.729Z,99866.73
2022-10-28T06:41:38.238Z,99867.81
2022-10-28T06:44:05.756Z,99874.94
2022-10-28T06:46:35.358Z,99877.50
2022-10-28T06:49:03.716Z,99872.27
2022-10-28T06:51:32.038Z,99869.64
2022-10-28T06:54:00.281Z,99877.72
2022-10-28T06:56:27.933Z,99871.14
2022-10-28T06:58:55.554Z,99873.23
2022-10-28T07:01:29.367Z,99877.17
2022-10-28T07:03:59.048Z,99875.74
2022-10-28T07:06:26.587Z,99872.26
2022-10-28T07:08:54.127Z,99872.38
2022-10-28T07:11:21.691Z,99878.33
2022-10-28T07:13:49.215Z,99881.63
2022-10-28T07:16:16.738Z,99876.54
2022-10-28T07:18:44.303Z,99872.38
2022-10-28T07:21:12.282Z,99871.73
2022-10-28T07:23:39.917Z,99874.20
2022-10-28T07:26:07.525Z,99871.20
2022-10-28T07:28:35.155Z,99876.02
2022-10-28T07:31:03.260Z,99874.14
2022-10-28T07:33:31.316Z,99873.13
2022-10-28T07:35:59.177Z,99875.75
2022-10-28T07:38:26.769Z,99872.01
2022-10-28T07:40:54.330Z,99869.06
2022-10-28T07:43:21.962Z,99873.98
2022-10-28T07:45:55.889Z,99873.15
2022-10-28T07:48:23.535Z,99872.25
2022-10-28T07:50:51.274Z,99874.48
2022-10-28T07:53:18.800Z,99876.76
2022-10-28T07:55:56.180Z,99872.98
2022-10-28T07:58:23.846Z,99876.32
2022-10-28T08:00:51.897Z,99873.09
2022-10-28T08:03:19.842Z,99873.78
2022-10-28T08:05:47.886Z,99871.89
2022-10-28T08:08:15.405Z,99877.20
2022-10-28T08:10:43.144Z,99871.52
2022-10-28T08:13:11.371Z,99871.40
2022-10-28T08:15:38.940Z,99875.15
2022-10-28T08:18:06.430Z,99879.05
2022-10-28T08:20:33.965Z,99878.71
2022-10-28T08:23:03.971Z,99882.95
2022-10-28T08:25:34.633Z,99879.20
2022-10-28T08:28:02.113Z,99883.85
2022-10-28T08:30:36.554Z,99882.05
2022-10-28T08:33:13.526Z,99880.77
2022-10-28T08:35:42.255Z,99884.14
2022-10-28T08:38:09.863Z,99882.92
2022-10-28T08:40:54.231Z,99881.04
2022-10-28T08:43:40.357Z,99878.20
2022-10-28T08:46:24.775Z,99871.94
2022-10-28T08:48:52.343Z,99867.16
2022-10-28T08:51:30.161Z,99864.26
2022-10-28T08:54:01.196Z,99861.87
2022-10-28T08:56:33.718Z,99859.75
2022-10-28T08:59:03.805Z,99861.09
2022-10-28T09:01:44.442Z,99860.72
2022-10-28T09:04:35.596Z,99855.16
2022-10-28T09:07:03.986Z,99855.37
2022-10-28T09:09:32.419Z,99855.58
2022-10-28T09:12:23.255Z,99855.27
2022-10-28T09:15:22.179Z,99855.83
2022-10-28T09:17:57.138Z,99855.81
2022-10-28T09:20:44.719Z,99860.73
2022-10-28T09:23:22.156Z,99862.33
2022-10-28T09:25:54.627Z,99858.34
2022-10-28T09:28:31.186Z,99859.88
2022-10-28T09:31:18.015Z,99861.36
2022-10-28T09:34:01.447Z,99864.65
2022-10-28T09:36:33.283Z,99859.56
2022-10-28T09:39:01.945Z,99858.34
2022-10-28T09:41:33.937Z,99859.10
2022-10-28T09:44:08.719Z,99853.77
2022-10-28T09:46:37.719Z,99850.03
2022-10-28T09:49:11.786Z,99850.61
2022-10-28T09:51:46.697Z,99848.69
2022-10-28T09:54:14.985Z,99847.14
2022-10-28T09:56:42.537Z,99848.69
2022-10-28T09:59:13.858Z,99843.41
2022-10-28T10:01:43.174Z,99838.71
2022-10-28T10:04:18.960Z,99842.44
2022-10-28T10:06:50.100Z,99840.58
2022-10-28T10:09:24.852Z,99841.59
2022-10-28T10:11:55.449Z,99844.23
2022-10-28T10:14:28.722Z,99841.11
2022-10-28T10:17:04.381Z,99842.73
2022-10-28T10:19:57.930Z,99845.30
2022-10-28T10:22:37.305Z,99848.33
2022-10-28T10:25:23.566Z,99848.19
2022-10-28T10:28:03.810Z,99851.36
2022-10-28T10:30:33.992Z,99844.08
2022-10-28T10:33:02.488Z,99843.79
2022-10-28T10:35:39.136Z,99842.71
2022-10-28T10:38:06.942Z,99839.28
2022-10-28T10:40:50.325Z,99842.61
2022-10-28T10:43:18.094Z,99847.63
2022-10-28T10:45:58.990Z,99846.14
2022-10-28T10:48:28.004Z,99845.17
2022-10-28T10:50:56.033Z,99843.62
2022-10-28T10:53:26.519Z,99837.75
2022-10-28T10:56:02.273Z,99841.04
2022-10-28T10:58:35.206Z,99836.77
2022-10-28T11:01:05.183Z,99831.66
2022-10-28T11:03:47.376Z,99833.99
2022-10-28T11:06:23.912Z,99836.59
2022-10-28T11:09:05.259Z,99835.27
2022-10-28T11:11:40.413Z,99835.46
2022-10-28T11:14:10.727Z,99835.11
2022-10-28T11:16:58.629Z,99832.79
2022-10-28T11:19:35.600Z,99834.18
2022-10-28T11:22:33.020Z,99831.11
2022-10-28T11:25:38.316Z,99826.33
2022-10-28T11:28:40.022Z,99827.74
2022-10-28T11:31:26.340Z,99825.52
2022-10-28T11:34:31.236Z,99822.19
2022-10-28T11:37:10.180Z,99823.98
2022-10-28T11:40:06.667Z,99816.86
2022-10-28T11:42:42.026Z,99814.77
2022-10-28T11:45:24.959Z,99810.90
2022-10-28T11:48:29.945Z,99812.56
2022-10-28T11:51:10.070Z,99812.23
2022-10-28T11:54:03.629Z,99809.04
2022-10-28T11:56:42.244Z,99808.55
2022-10-28T11:59:43.819Z,99808.99
2022-10-28T12:02:33.640Z,99804.10
2022-10-28T12:05:23.665Z,99803.21
2022-10-28T12:08:01.320Z,99803.09
2022-10-28T12:10:41.328Z,99799.51
2022-10-28T12:13:14.004Z,99794.36
2022-10-28T12:15:55.859Z,99791.48
2022-10-28T12:18:33.682Z,99788.82
2022-10-28T12:21:10.419Z,99785.52
2022-10-28T12:23:39.195Z,99784.11
2022-10-28T12:26:09.679Z,99784.67
2022-10-28T12:28:42.142Z,99775.91
2022-10-28T12:31:19.639Z,99778.08
2022-10-28T12:33:50.044Z,99770.52
2022-10-28T12:36:37.865Z,99769.39
2022-10-28T12:39:18.659Z,99763.17
2022-10-28T12:42:00.919Z,99768.89
2022-10-28T12:44:29.561Z,99771.92
2022-10-28T12:47:14.824Z,99774.20
2022-10-28T12:50:08.040Z,99770.42
2022-10-28T12:53:06.212Z,99765.81
2022-10-28T12:55:42.836Z,99768.14
2022-10-28T12:58:29.572Z,99770.08
2022-10-28T13:01:08.417Z,99767.48
2022-10-28T13:03:36.393Z,99762.48
2022-10-28T13:06:43.812Z,99763.16
2022-10-28T13:09:39.127Z,99764.63
2022-10-28T13:12:16.243Z,99762.91
2022-10-28T13:14:55.839Z,99763.98
2022-10-28T13:17:46.449Z,99759.27
2022-10-28T13:20:52.525Z,99755.83
2022-10-28T13:23:29.746Z,99757.45
2022-10-28T13:26:16.721Z,99757.43
2022-10-28T13:28:49.401Z,99758.58
2022-10-28T13:31:17.446Z,99756.52
2022-10-28T13:33:52.699Z,99758.44
2022-10-28T13:36:29.403Z,99759.61
2022-10-28T13:39:00.012Z,99757.61
2022-10-28T13:41:40.981Z,99761.33
2022-10-28T13:44:23.181Z,99760.89
2022-10-28T13:46:57.197Z,99761.75
2022-10-28T13:49:35.098Z,99760.71
2022-10-28T13:52:19.589Z,99762.98
2022-10-28T13:54:48.184Z,99766.30
2022-10-28T13:57:28.890Z,99767.55
2022-10-28T14:00:22.230Z,99770.11
2022-10-28T14:02:58.397Z,99772.62
2022-10-28T14:05:46.687Z,99775.30
2022-10-28T14:08:20.703Z,99774.55
2022-10-28T14:11:13.957Z,99770.86
2022-10-28T14:13:56.907Z,99768.05
2022-10-28T14:16:31.301Z,99762.73
2022-10-28T14:19:16.514Z,99765.58
2022-10-28T14:21:50.124Z,99767.42
2022-10-28T14:24:42.934Z,99771.80
2022-10-28T14:27:15.221Z,99770.63
2022-10-28T14:29:44.002Z,99766.23
2022-10-28T14:32:55.397Z,99758.73
2022-10-28T14:35:51.151Z,99754.19
2022-10-28T14:38:38.757Z,99750.48
2022-10-28T14:41:18.450Z,99747.17
2022-10-28T14:43:58.271Z,99748.63
2022-10-28T14:46:36.138Z,99745.07
2022-10-28T14:49:04.244Z,99739.98
2022-10-28T14:51:41.856Z,99735.98
2022-10-28T14:54:15.461Z,99737.44
2022-10-28T14:56:43.327Z,99737.46
2022-10-28T14:59:24.075Z,99735.95
2022-10-28T15:02:02.492Z,99737.02
2022-10-28T15:04:30.388Z,99736.20
2022-10-28T15:06:58.689Z,99728.66
2022-10-28T15:09:31.057Z,99725.98
2022-10-28T15:12:08.382Z,99715.74
2022-10-28T15:14:41.039Z,99706.40
2022-10-28T15:17:20.524Z,99706.08
2022-10-28T15:19:51.612Z,99702.42
2022-10-28T15:22:30.692Z,99697.19
2022-10-28T15:25:25.676Z,99701.59
2022-10-28T15:27:54.105Z,99701.32
2022-10-28T15:30:24.019Z,99695.48
2022-10-28T15:32:53.965Z,99688.84
2022-10-28T15:35:27.777Z,99692.77
2022-10-28T15:37:59.208Z,99701.82
2022-10-28T15:40:32.389Z,99706.36
2022-10-28T15:43:02.685Z,99705.86
2022-10-28T15:45:32.433Z,99714.44
2022-10-28T15:48:03.630Z,99706.11
2022-10-28T15:50:33.371Z,99695.86
2022-10-28T15:53:09.770Z,99697.27
2022-10-28T15:56:06.954Z,99702.73
2022-10-28T15:58:32.731Z,99705.53
2022-10-28T16:01:00.397Z,99696.96
2022-10-28T16:03:41.594Z,99698.78
2022-10-28T16:06:29.377Z,99697.08
2022-10-28T16:09:15.715Z,99689.23
2022-10-28T16:11:47.674Z,99685.84
2022-10-28T16:14:35.566Z,99685.78
2022-10-28T16:17:16.071Z,99686.67
2022-10-28T16:19:46.608Z,99680.41
2022-10-28T16:22:14.312Z,99674.17
2022-10-28T16:24:42.383Z,99667.83
2022-10-28T16:27:22.300Z,99672.33
2022-10-28T16:29:50.433Z,99670.42
2022-10-28T16:32:22.907Z,99671.85
2022-10-28T16:34:50.467Z,99672.08
2022-10-28T16:37:27.403Z,99670.04
2022-10-28T16:39:55.436Z,99665.30
2022-10-28T16:42:23.648Z,99663.46
2022-10-28T16:44:51.336Z,99665.22
2022-10-28T16:47:20.730Z,99669.45
2022-10-28T16:49:54.423Z,99671.58
2022-10-28T16:52:28.827Z,99664.58
2022-10-28T16:54:57.328Z,99666.63
2022-10-28T16:57:25.639Z,99663.34
2022-10-28T16:59:54.023Z,99655.73
2022-10-28T17:02:30.818Z,99654.58
2022-10-28T17:04:59.411Z,99650.20
2022-10-28T17:07:27.824Z,99654.63
2022-10-28T17:09:56.962Z,99660.20
2022-10-28T17:12:26.634Z,99665.78
2022-10-28T17:14:54.524Z,99666.91
2022-10-28T17:17:22.098Z,99669.73
2022-10-28T17:19:49.652Z,99666.85
2022-10-28T17:22:17.408Z,99660.60
2022-10-28T17:24:44.996Z,99661.55
2022-10-28T17:27:13.271Z,99659.70
2022-10-28T17:29:40.898Z,99658.00
2022-10-28T17:32:08.642Z,99656.39
2022-10-28T17:34:36.688Z,99659.38
2022-10-28T17:37:04.642Z,99662.30
2022-10-28T17:39:32.162Z,99671.95
2022-10-28T17:42:00.180Z,99671.52
2022-10-28T17:44:27.774Z,99673.00
2022-10-28T17:46:55.323Z,99674.58
2022-10-28T17:49:22.906Z,99671.13
2022-10-28T17:51:51.437Z,99663.19
2022-10-28T17:54:19.224Z,99659.94
2022-10-28T17:56:47.836Z,99660.34
2022-10-28T17:59:15.434Z,99666.05
2022-10-28T18:01:43.057Z,99675.98
2022-10-28T18:04:12.090Z,99685.34
2022-10-28T18:06:39.707Z,99677.08
2022-10-28T18:09:11.848Z,99671.36
2022-10-28T18:11:39.952Z,99664.35
2022-10-28T18:14:07.523Z,99655.10
2022-10-28T18:16:37.091Z,99648.48
2022-10-28T18:19:06.383Z,99643.91
2022-10-28T18:21:34.485Z,99639.13
2022-10-28T18:24:04.975Z,99631.41
2022-10-28T18:26:35.056Z,99619.37
2022-10-28T18:29:08.054Z,99611.10
2022-10-28T18:31:37.569Z,99608.88
2022-10-28T18:34:05.185Z,99602.38
2022-10-28T18:36:35.505Z,99598.22
2022-10-28T18:39:06.713Z,99597.36
2022-10-28T18:41:42.188Z,99599.64
2022-10-28T18:44:13.073Z,99604.02
2022-10-28T18:46:40.950Z,99603.81
2022-10-28T18:49:08.690Z,99603.81
2022-10-28T18:51:36.832Z,99607.84
2022-10-28T18:54:05.047Z,99608.61
2022-10-28T18:56:35.403Z,99612.33
2022-10-28T18:59:04.552Z,99615.60
2022-10-28T19:01:33.506Z,99612.20
2022-10-28T19:04:02.918Z,99617.45
2022-10-28T19:06:32.712Z,99619.77
2022-10-28T19:09:04.620Z,99617.66
2022-10-28T19:11:33.985Z,99613.52
2022-10-28T19:14:04.399Z,99606.17
2022-10-28T19:16:35.439Z,99605.17
2022-10-28T19:19:04.591Z,99603.59
2022-10-28T19:21:32.944Z,99600.77
2022-10-28T19:24:00.837Z,99601.24
2022-10-28T19:26:31.994Z,99611.55
2022-10-28T19:28:59.654Z,99613.08
2022-10-28T19:31:27.851Z,99601.45
2022-10-28T19:33:55.540Z,99607.15
2022-10-28T19:36:26.244Z,99607.98
2022-10-28T19:38:56.082Z,99608.97
2022-10-28T19:41:29.781Z,99615.41
2022-10-28T19:44:01.687Z,99618.38
2022-10-28T19:46:35.504Z,99610.50
2022-10-28T19:49:05.229Z,99603.36
2022-10-28T19:51:39.072Z,99599.15
2022-10-28T19:54:12.113Z,99604.72
2022-10-28T19:56:40.363Z,99598.27
2022-10-28T19:59:08.008Z,99594.61
2022-10-28T20:01:38.091Z,99594.15
2022-10-28T20:04:06.838Z,99599.48
2022-10-28T20:06:37.273Z,99603.12
2022-10-28T20:09:05.487Z,99604.16
2022-10-28T20:11:35.476Z,99601.42
2022-10-28T20:14:12.365Z,99596.09
2022-10-28T20:16:43.620Z,99587.52
2022-10-28T20:19:12.192Z,99586.59
2022-10-28T20:21:39.795Z,99588.04
2022-10-28T20:24:08.057Z,99588.34
2022-10-28T20:26:37.975Z,99579.04
2022-10-28T20:29:10.325Z,99584.45
2022-10-28T20:31:39.059Z,99589.09
2022-10-28T20:34:07.801Z,99592.05
2022-10-28T20:36:38.633Z,99591.17
2022-10-28T20:39:15.941Z,99592.36
2022-10-28T20:41:46.029Z,99594.40
2022-10-28T20:44:14.560Z,99594.84
2022-10-28T20:46:42.395Z,99591.48
2022-10-28T20:49:10.528Z,99585.54
2022-10-28T20:51:38.072Z,99590.65
2022-10-28T20:54:06.054Z,99587.77
2022-10-28T20:56:37.215Z,99581.64
2022-10-28T20:59:05.409Z,99576.20
2022-10-28T21:01:35.836Z,99572.91
2022-10-28T21:04:06.376Z,99571.74
2022-10-28T21:06:34.537Z,99575.09
2022-10-28T21:09:02.141Z,99574.42
2022-10-28T21:11:29.794Z,99571.60
2022-10-28T21:13:59.673Z,99567.14
2022-10-28T21:16:28.410Z,99563.30
2022-10-28T21:18:56.555Z,99561.61
2022-10-28T21:21:24.938Z,99558.54
2022-10-28T21:23:55.724Z,99558.23
2022-10-28T21:26:23.311Z,99550.52
2022-10-28T21:28:52.270Z,99556.88
2022-10-28T21:31:21.239Z,99555.14
2022-10-28T21:36:19.946Z,99556.63
2022-10-28T21:38:47.948Z,99556.25
2022-10-28T21:41:17.842Z,99552.22
2022-10-28T21:43:50.387Z,99553.38
2022-10-28T21:46:19.125Z,99550.71
2022-10-28T21:48:47.066Z,99541.38
2022-10-28T21:51:16.330Z,99544.30
2022-10-28T21:53:44.746Z,99543.67
2022-10-28T21:56:18.845Z,99538.86
2022-10-28T21:58:48.961Z,99537.34
2022-10-28T22:01:19.827Z,99531.33
2022-10-28T22:03:47.555Z,99530.36
2022-10-28T22:06:15.246Z,99533.48
2022-10-28T22:08:42.892Z,99531.69
2022-10-28T22:11:19.115Z,99529.60
2022-10-28T22:14:01.594Z,99524.10
2022-10-28T22:16:30.706Z,99529.14
2022-10-28T22:18:59.913Z,99523.27
2022-10-28T22:21:30.450Z,99527.48
2022-10-28T22:23:57.984Z,99521.77
2022-10-28T22:26:28.594Z,99523.41
2022-10-28T22:28:57.033Z,99521.94
2022-10-28T22:31:27.161Z,99523.77
2022-10-28T22:33:55.350Z,99525.57
2022-10-28T22:36:25.575Z,99522.15
2022-10-28T22:38:53.380Z,99519.65
2022-10-28T22:41:29.061Z,99519.84
2022-10-28T22:43:58.641Z,99521.70
2022-10-28T22:46:30.038Z,99518.42
2022-10-28T22:48:57.797Z,99523.77
2022-10-28T22:51:25.514Z,99520.27
2022-10-28T22:53:53.322Z,99519.60
2022-10-28T22:56:24.287Z,99514.64
2022-10-28T22:58:54.609Z,99514.31
2022-10-28T23:01:23.222Z,99512.48
2022-10-28T23:03:52.942Z,99509.48
2022-10-28T23:06:23.352Z,99509.42
2022-10-28T23:08:51.001Z,99510.20
2022-10-28T23:11:19.983Z,99511.00
2022-10-28T23:13:52.736Z,99512.85
2022-10-28T23:16:21.248Z,99514.33
2022-10-28T23:18:48.872Z,99509.58
2022-10-28T23:21:21.378Z,99514.17
2022-10-28T23:23:54.087Z,99508.40
2022-10-28T23:26:23.049Z,99506.61
2022-10-28T23:28:52.811Z,99506.88
2022-10-28T23:31:20.978Z,99504.02
2022-10-28T23:33:49.280Z,99502.36
2022-10-28T23:36:16.847Z,99500.25
2022-10-28T23:38:44.686Z,99496.14
2022-10-28T23:41:16.016Z,99493.48
2022-10-28T23:43:44.403Z,99490.90
2022-10-28T23:46:12.285Z,99485.46
2022-10-28T23:48:39.924Z,99479.38
2022-10-28T23:51:07.697Z,99483.85
2022-10-28T23:53:35.408Z,99477.43
2022-10-28T23:56:03.034Z,99475.13
2022-10-28T23:58:30.612Z,99471.98
